DLH7K EDDF-KBOS
Flight info
| Callsign | DLH7K |
|---|---|
| Flight time | N/A |
| Altitude | 34000 |
| Route | OBOKA3M OBOKA Z29 TORNU DCT VICOT DCT GALSO Q63 ERING L179 UGBET Q60 OKSAW DCT BIBPE DCT TIGWE/N0470F360 DCT FELCA DCT FADZU DCT NICXI DCT OFSOX DCT SLANY DCT DIMUS DCT MALOT/M082F370 NATE RIKAL/N0473F380 N572A TOPPS DCT AJJAY OOSHN5 |
| Aircraft | A346/H-SDE2E3FGHIJ3J4J5M1RWXY/LB1D1 |
Departure
| Time | N/A |
|---|---|
| Airport | Frankfurt Main Airport (EDDF) |
Arrival
| Time | 2026-05-05 19:13 |
|---|---|
| Airport | Boston Logan International Airport (KBOS) |
| Time | Latitude | Longitude | Altitude | Speed | Heading |
|---|---|---|---|---|---|
| 2026-05-05 16:31 | 53.20074 | -48.54731 | 36751 ft | 472 kts | 255° |
| 2026-05-05 16:32 | 53.18667 | -48.65401 | 36749 ft | 470 kts | 255° |
| 2026-05-05 16:32 | 53.17243 | -48.76113 | 36746 ft | 470 kts | 255° |
| 2026-05-05 16:33 | 53.15815 | -48.86766 | 36744 ft | 472 kts | 255° |
| 2026-05-05 16:33 | 53.14379 | -48.97429 | 36739 ft | 472 kts | 254° |
| 2026-05-05 16:34 | 53.12932 | -49.08074 | 36739 ft | 471 kts | 254° |
| 2026-05-05 16:34 | 53.11471 | -49.18729 | 36726 ft | 469 kts | 255° |
| 2026-05-05 16:35 | 53.10015 | -49.29296 | 36724 ft | 470 kts | 254° |
| 2026-05-05 16:35 | 53.08555 | -49.39845 | 36721 ft | 468 kts | 255° |
| 2026-05-05 16:36 | 53.07073 | -49.50432 | 36715 ft | 468 kts | 255° |
| 2026-05-05 16:36 | 53.05577 | -49.61026 | 36703 ft | 469 kts | 254° |
| 2026-05-05 16:37 | 53.04081 | -49.71566 | 36718 ft | 469 kts | 254° |
| 2026-05-05 16:37 | 53.02579 | -49.82095 | 36702 ft | 468 kts | 254° |
| 2026-05-05 16:38 | 53.01056 | -49.92687 | 36687 ft | 468 kts | 254° |
| 2026-05-05 16:38 | 52.99217 | -50.02998 | 36685 ft | 467 kts | 248° |
| 2026-05-05 16:39 | 52.96865 | -50.13018 | 36688 ft | 467 kts | 246° |
| 2026-05-05 16:39 | 52.94450 | -50.23058 | 36690 ft | 466 kts | 246° |
| 2026-05-05 16:40 | 52.92053 | -50.32970 | 36672 ft | 463 kts | 246° |
| 2026-05-05 16:40 | 52.89643 | -50.42899 | 36674 ft | 463 kts | 246° |
| 2026-05-05 16:41 | 52.87216 | -50.52844 | 36672 ft | 463 kts | 246° |
| 2026-05-05 16:41 | 52.84803 | -50.62684 | 36677 ft | 463 kts | 246° |
| 2026-05-05 16:42 | 52.82372 | -50.72538 | 36678 ft | 463 kts | 246° |
| 2026-05-05 16:42 | 52.79918 | -50.82452 | 36669 ft | 464 kts | 246° |
| 2026-05-05 16:43 | 52.77477 | -50.92288 | 36659 ft | 465 kts | 246° |
| 2026-05-05 16:43 | 52.75007 | -51.02191 | 36659 ft | 464 kts | 246° |
| 2026-05-05 16:44 | 52.72542 | -51.12024 | 36661 ft | 464 kts | 246° |
| 2026-05-05 16:44 | 52.70046 | -51.21921 | 36650 ft | 463 kts | 246° |
| 2026-05-05 16:45 | 52.67564 | -51.31726 | 36652 ft | 463 kts | 246° |
| 2026-05-05 16:45 | 52.65078 | -51.41518 | 36650 ft | 463 kts | 246° |
| 2026-05-05 16:46 | 52.62591 | -51.51267 | 36648 ft | 464 kts | 246° |
| 2026-05-05 16:46 | 52.60080 | -51.61064 | 36647 ft | 463 kts | 246° |
| 2026-05-05 16:47 | 52.57562 | -51.70832 | 36625 ft | 462 kts | 246° |
| 2026-05-05 16:47 | 52.55062 | -51.80500 | 36636 ft | 460 kts | 246° |
| 2026-05-05 16:48 | 52.52548 | -51.90189 | 36637 ft | 460 kts | 246° |
| 2026-05-05 16:48 | 52.50021 | -51.99884 | 36639 ft | 460 kts | 246° |
| 2026-05-05 16:49 | 52.47504 | -52.09498 | 36628 ft | 460 kts | 246° |
| 2026-05-05 16:49 | 52.44966 | -52.19147 | 36628 ft | 460 kts | 246° |
| 2026-05-05 16:50 | 52.42413 | -52.28813 | 36634 ft | 461 kts | 246° |
| 2026-05-05 16:50 | 52.40286 | -52.36834 | 36629 ft | 460 kts | 246° |
| 2026-05-05 16:51 | 52.37736 | -52.46412 | 36629 ft | 460 kts | 246° |
| 2026-05-05 16:51 | 52.35163 | -52.56038 | 36629 ft | 460 kts | 246° |
| 2026-05-05 16:52 | 52.32578 | -52.65662 | 36634 ft | 459 kts | 246° |
| 2026-05-05 16:52 | 52.30012 | -52.75181 | 36632 ft | 459 kts | 246° |
| 2026-05-05 16:53 | 52.27427 | -52.84732 | 36633 ft | 459 kts | 246° |
| 2026-05-05 16:53 | 52.24844 | -52.94239 | 36635 ft | 459 kts | 246° |
| 2026-05-05 16:54 | 52.22239 | -53.03787 | 36631 ft | 459 kts | 246° |
| 2026-05-05 16:54 | 52.19645 | -53.13247 | 36628 ft | 459 kts | 246° |
| 2026-05-05 16:55 | 52.17024 | -53.22773 | 36630 ft | 459 kts | 246° |
| 2026-05-05 16:55 | 52.14397 | -53.32283 | 36633 ft | 459 kts | 246° |
| 2026-05-05 16:56 | 52.11782 | -53.41710 | 36625 ft | 459 kts | 246° |
| 2026-05-05 16:56 | 52.09138 | -53.51200 | 36626 ft | 459 kts | 245° |
| 2026-05-05 16:57 | 52.06503 | -53.60617 | 36628 ft | 459 kts | 246° |
| 2026-05-05 16:57 | 52.03843 | -53.70092 | 36630 ft | 459 kts | 246° |
| 2026-05-05 16:58 | 52.01191 | -53.79497 | 36620 ft | 459 kts | 245° |
| 2026-05-05 16:58 | 51.98526 | -53.88909 | 36619 ft | 459 kts | 245° |
| 2026-05-05 16:59 | 51.95842 | -53.98348 | 36627 ft | 459 kts | 245° |
| 2026-05-05 16:59 | 51.93162 | -54.07722 | 36631 ft | 458 kts | 246° |
| 2026-05-05 17:00 | 51.90487 | -54.17069 | 36635 ft | 458 kts | 246° |
| 2026-05-05 17:00 | 51.87797 | -54.26427 | 36628 ft | 457 kts | 246° |
| 2026-05-05 17:01 | 51.85103 | -54.35759 | 36629 ft | 458 kts | 246° |
| 2026-05-05 17:01 | 51.82383 | -54.45136 | 36747 ft | 460 kts | 245° |
| 2026-05-05 17:02 | 51.81029 | -54.49757 | 37024 ft | 459 kts | 244° |
| 2026-05-05 17:02 | 51.79555 | -54.54311 | 37431 ft | 455 kts | 242° |
| 2026-05-05 17:02 | 51.77947 | -54.58736 | 37629 ft | 455 kts | 239° |
| 2026-05-05 17:02 | 51.76298 | -54.63094 | 37623 ft | 454 kts | 239° |
| 2026-05-05 17:03 | 51.72997 | -54.71811 | 37628 ft | 454 kts | 239° |
| 2026-05-05 17:03 | 51.69699 | -54.80485 | 37636 ft | 454 kts | 239° |
| 2026-05-05 17:04 | 51.66378 | -54.89189 | 37625 ft | 455 kts | 239° |
| 2026-05-05 17:04 | 51.63057 | -54.97864 | 37641 ft | 456 kts | 239° |
| 2026-05-05 17:05 | 51.59709 | -55.06573 | 37642 ft | 456 kts | 239° |
| 2026-05-05 17:05 | 51.56369 | -55.15233 | 37642 ft | 456 kts | 239° |
| 2026-05-05 17:06 | 51.53005 | -55.23923 | 37632 ft | 458 kts | 239° |
| 2026-05-05 17:06 | 51.49638 | -55.32580 | 37626 ft | 460 kts | 240° |
| 2026-05-05 17:07 | 51.46246 | -55.41293 | 37627 ft | 460 kts | 239° |
| 2026-05-05 17:07 | 51.42839 | -55.50017 | 37632 ft | 460 kts | 239° |
| 2026-05-05 17:08 | 51.39450 | -55.58663 | 37629 ft | 460 kts | 239° |
| 2026-05-05 17:08 | 51.36032 | -55.67348 | 37613 ft | 460 kts | 240° |
| 2026-05-05 17:09 | 51.32618 | -55.75979 | 37623 ft | 458 kts | 240° |
| 2026-05-05 17:09 | 51.29219 | -55.84566 | 37626 ft | 458 kts | 240° |
| 2026-05-05 17:10 | 51.25804 | -55.93163 | 37626 ft | 458 kts | 240° |
| 2026-05-05 17:10 | 51.22390 | -56.01726 | 37626 ft | 458 kts | 240° |
| 2026-05-05 17:11 | 51.18955 | -56.10301 | 37626 ft | 454 kts | 240° |
| 2026-05-05 17:11 | 51.15574 | -56.18726 | 37628 ft | 452 kts | 240° |
| 2026-05-05 17:12 | 51.12187 | -56.27144 | 37623 ft | 452 kts | 240° |
| 2026-05-05 17:12 | 51.08777 | -56.35588 | 37625 ft | 452 kts | 240° |
| 2026-05-05 17:13 | 51.05374 | -56.43985 | 37623 ft | 452 kts | 240° |
| 2026-05-05 17:13 | 51.01976 | -56.52358 | 37627 ft | 448 kts | 239° |
| 2026-05-05 17:14 | 50.98599 | -56.60627 | 37628 ft | 446 kts | 239° |
| 2026-05-05 17:14 | 50.95218 | -56.68881 | 37634 ft | 446 kts | 239° |
| 2026-05-05 17:15 | 50.91825 | -56.77142 | 37633 ft | 446 kts | 239° |
| 2026-05-05 17:15 | 50.88442 | -56.85352 | 37631 ft | 444 kts | 239° |
| 2026-05-05 17:16 | 50.85058 | -56.93544 | 37641 ft | 444 kts | 239° |
| 2026-05-05 17:16 | 50.81666 | -57.01725 | 37655 ft | 443 kts | 239° |
| 2026-05-05 17:17 | 50.78267 | -57.09899 | 37656 ft | 443 kts | 238° |
| 2026-05-05 17:17 | 50.74887 | -57.18003 | 37667 ft | 443 kts | 239° |
| 2026-05-05 17:18 | 50.71453 | -57.26215 | 37679 ft | 448 kts | 238° |
| 2026-05-05 17:18 | 50.68013 | -57.34411 | 37681 ft | 449 kts | 238° |
| 2026-05-05 17:19 | 50.64552 | -57.42628 | 37704 ft | 449 kts | 238° |
| 2026-05-05 17:19 | 50.61080 | -57.50847 | 37704 ft | 449 kts | 238° |
| 2026-05-05 17:20 | 50.57617 | -57.59011 | 37706 ft | 450 kts | 239° |
| 2026-05-05 17:20 | 50.54124 | -57.67230 | 37723 ft | 451 kts | 239° |
| 2026-05-05 17:21 | 50.50630 | -57.75430 | 37748 ft | 453 kts | 238° |
| 2026-05-05 17:22 | 50.45357 | -57.87743 | 37751 ft | 454 kts | 238° |
| 2026-05-05 17:22 | 50.41829 | -57.95941 | 37750 ft | 453 kts | 238° |
| 2026-05-05 17:23 | 50.38301 | -58.04124 | 37766 ft | 452 kts | 238° |
| 2026-05-05 17:23 | 50.34783 | -58.12267 | 37766 ft | 452 kts | 238° |
| 2026-05-05 17:24 | 50.31245 | -58.20424 | 37772 ft | 452 kts | 238° |
| 2026-05-05 17:24 | 50.27692 | -58.28588 | 37750 ft | 452 kts | 238° |
| 2026-05-05 17:25 | 50.24153 | -58.36688 | 37769 ft | 450 kts | 238° |
| 2026-05-05 17:25 | 50.20639 | -58.44719 | 37774 ft | 450 kts | 238° |
| 2026-05-05 17:26 | 50.17102 | -58.52780 | 37772 ft | 449 kts | 238° |
| 2026-05-05 17:26 | 50.13558 | -58.60827 | 37781 ft | 449 kts | 238° |
| 2026-05-05 17:27 | 50.09999 | -58.68879 | 37761 ft | 449 kts | 238° |
| 2026-05-05 17:27 | 50.06456 | -58.76875 | 37776 ft | 448 kts | 238° |
| 2026-05-05 17:28 | 50.02922 | -58.84828 | 37788 ft | 448 kts | 238° |
| 2026-05-05 17:28 | 49.99359 | -58.92823 | 37798 ft | 448 kts | 238° |
| 2026-05-05 17:29 | 49.95804 | -59.00773 | 37776 ft | 448 kts | 238° |
| 2026-05-05 17:29 | 49.92261 | -59.08669 | 37789 ft | 446 kts | 238° |
| 2026-05-05 17:30 | 49.88715 | -59.16551 | 37788 ft | 446 kts | 238° |
| 2026-05-05 17:30 | 49.85154 | -59.24443 | 37792 ft | 446 kts | 238° |
| 2026-05-05 17:31 | 49.81584 | -59.32333 | 37801 ft | 446 kts | 238° |
| 2026-05-05 17:31 | 49.78003 | -59.40220 | 37795 ft | 448 kts | 238° |
| 2026-05-05 17:32 | 49.74409 | -59.48116 | 37799 ft | 448 kts | 238° |
| 2026-05-05 17:32 | 49.70831 | -59.55952 | 37806 ft | 448 kts | 238° |
| 2026-05-05 17:33 | 49.67224 | -59.63828 | 37803 ft | 448 kts | 238° |
| 2026-05-05 17:33 | 49.63607 | -59.71700 | 37785 ft | 448 kts | 238° |
| 2026-05-05 17:34 | 49.60005 | -59.79520 | 37805 ft | 449 kts | 238° |
| 2026-05-05 17:34 | 49.56381 | -59.87366 | 37805 ft | 449 kts | 238° |
| 2026-05-05 17:35 | 49.52748 | -59.95207 | 37805 ft | 449 kts | 238° |
| 2026-05-05 17:35 | 49.49103 | -60.03049 | 37810 ft | 449 kts | 238° |
| 2026-05-05 17:36 | 49.45471 | -60.10842 | 37793 ft | 450 kts | 237° |
| 2026-05-05 17:36 | 49.41811 | -60.18670 | 37811 ft | 450 kts | 237° |
| 2026-05-05 17:37 | 49.38152 | -60.26475 | 37817 ft | 450 kts | 237° |
| 2026-05-05 17:37 | 49.34500 | -60.34240 | 37815 ft | 450 kts | 237° |
| 2026-05-05 17:38 | 49.30824 | -60.42025 | 37810 ft | 448 kts | 238° |
| 2026-05-05 17:38 | 49.27186 | -60.49721 | 37818 ft | 447 kts | 237° |
| 2026-05-05 17:39 | 49.23527 | -60.57436 | 37809 ft | 447 kts | 237° |
| 2026-05-05 17:39 | 49.19873 | -60.65119 | 37816 ft | 447 kts | 237° |
| 2026-05-05 17:40 | 49.16212 | -60.72788 | 37805 ft | 444 kts | 238° |
| 2026-05-05 17:40 | 49.12582 | -60.80372 | 37816 ft | 441 kts | 238° |
| 2026-05-05 17:41 | 49.08945 | -60.87957 | 37819 ft | 441 kts | 238° |
| 2026-05-05 17:41 | 49.05334 | -60.95465 | 37814 ft | 441 kts | 238° |
| 2026-05-05 17:42 | 49.01719 | -61.02957 | 37799 ft | 441 kts | 238° |
| 2026-05-05 17:42 | 48.98091 | -61.10453 | 37813 ft | 437 kts | 238° |
| 2026-05-05 17:43 | 48.95081 | -61.16659 | 37820 ft | 436 kts | 238° |
| 2026-05-05 17:43 | 48.91489 | -61.24047 | 37817 ft | 433 kts | 237° |
| 2026-05-05 17:44 | 48.87894 | -61.31418 | 37818 ft | 433 kts | 237° |
| 2026-05-05 17:44 | 48.84301 | -61.38769 | 37802 ft | 430 kts | 237° |
| 2026-05-05 17:45 | 48.80748 | -61.46016 | 37811 ft | 429 kts | 237° |
| 2026-05-05 17:45 | 48.77168 | -61.53295 | 37813 ft | 429 kts | 237° |
| 2026-05-05 17:46 | 48.73601 | -61.60533 | 37810 ft | 429 kts | 237° |
| 2026-05-05 17:46 | 48.70034 | -61.67748 | 37786 ft | 429 kts | 237° |
| 2026-05-05 17:47 | 48.66467 | -61.74949 | 37808 ft | 428 kts | 237° |
| 2026-05-05 17:47 | 48.62879 | -61.82168 | 37804 ft | 428 kts | 237° |
| 2026-05-05 17:48 | 48.59305 | -61.89338 | 37804 ft | 428 kts | 237° |
| 2026-05-05 17:48 | 48.55716 | -61.96522 | 37804 ft | 428 kts | 237° |
| 2026-05-05 17:49 | 48.52132 | -62.03679 | 37791 ft | 428 kts | 237° |
| 2026-05-05 17:49 | 48.48539 | -62.10832 | 37804 ft | 428 kts | 236° |
| 2026-05-05 17:50 | 48.44928 | -62.18002 | 37804 ft | 428 kts | 236° |
| 2026-05-05 17:50 | 48.41321 | -62.25149 | 37805 ft | 428 kts | 236° |
| 2026-05-05 17:51 | 48.37727 | -62.32249 | 37767 ft | 428 kts | 236° |
| 2026-05-05 17:51 | 48.34104 | -62.39385 | 37786 ft | 428 kts | 236° |
| 2026-05-05 17:52 | 48.30479 | -62.46506 | 37786 ft | 428 kts | 236° |
| 2026-05-05 17:52 | 48.26865 | -62.53586 | 37791 ft | 428 kts | 236° |
| 2026-05-05 17:53 | 48.23226 | -62.60696 | 37789 ft | 428 kts | 236° |
| 2026-05-05 17:53 | 48.19613 | -62.67742 | 37779 ft | 428 kts | 235° |
| 2026-05-05 17:54 | 48.15976 | -62.74812 | 37772 ft | 427 kts | 235° |
| 2026-05-05 17:54 | 48.12355 | -62.81834 | 37770 ft | 427 kts | 235° |
| 2026-05-05 17:55 | 48.08700 | -62.88904 | 37781 ft | 427 kts | 235° |
| 2026-05-05 17:55 | 48.05065 | -62.95917 | 37763 ft | 427 kts | 235° |
| 2026-05-05 17:56 | 48.01435 | -63.02902 | 37769 ft | 426 kts | 235° |
| 2026-05-05 17:56 | 47.97791 | -63.09896 | 37763 ft | 426 kts | 235° |
| 2026-05-05 17:57 | 47.94144 | -63.16878 | 37765 ft | 426 kts | 235° |
| 2026-05-05 17:57 | 47.90508 | -63.23820 | 37762 ft | 426 kts | 235° |
| 2026-05-05 17:58 | 47.86852 | -63.30783 | 37763 ft | 426 kts | 235° |
| 2026-05-05 17:58 | 47.83197 | -63.37727 | 37763 ft | 426 kts | 235° |
| 2026-05-05 17:59 | 47.79555 | -63.44631 | 37758 ft | 426 kts | 235° |
| 2026-05-05 17:59 | 47.75880 | -63.51578 | 37752 ft | 426 kts | 235° |
| 2026-05-05 18:00 | 47.72232 | -63.58457 | 37738 ft | 426 kts | 234° |
| 2026-05-05 18:00 | 47.68556 | -63.65371 | 37743 ft | 426 kts | 234° |
| 2026-05-05 18:01 | 47.64876 | -63.72274 | 37749 ft | 426 kts | 234° |
| 2026-05-05 18:01 | 47.61197 | -63.79157 | 37747 ft | 426 kts | 234° |
| 2026-05-05 18:02 | 47.57505 | -63.86046 | 37728 ft | 426 kts | 234° |
| 2026-05-05 18:02 | 47.53834 | -63.92881 | 37743 ft | 426 kts | 234° |
| 2026-05-05 18:03 | 47.50127 | -63.99765 | 37742 ft | 426 kts | 234° |
| 2026-05-05 18:03 | 47.46424 | -64.06623 | 37747 ft | 426 kts | 234° |
| 2026-05-05 18:04 | 47.42730 | -64.13445 | 37741 ft | 426 kts | 234° |
| 2026-05-05 18:04 | 47.39024 | -64.20272 | 37749 ft | 424 kts | 234° |
| 2026-05-05 18:05 | 47.35330 | -64.27068 | 37742 ft | 424 kts | 234° |
| 2026-05-05 18:05 | 47.31654 | -64.33807 | 37738 ft | 423 kts | 234° |
| 2026-05-05 18:06 | 47.27951 | -64.40579 | 37743 ft | 423 kts | 234° |
| 2026-05-05 18:06 | 47.24260 | -64.47314 | 37742 ft | 424 kts | 234° |
| 2026-05-05 18:07 | 47.20542 | -64.54081 | 37743 ft | 425 kts | 234° |
| 2026-05-05 18:07 | 47.16809 | -64.60859 | 37742 ft | 425 kts | 233° |
| 2026-05-05 18:08 | 47.13081 | -64.67612 | 37731 ft | 425 kts | 233° |
| 2026-05-05 18:08 | 47.09350 | -64.74354 | 37720 ft | 424 kts | 233° |
| 2026-05-05 18:09 | 47.05638 | -64.81045 | 37726 ft | 424 kts | 233° |
| 2026-05-05 18:09 | 47.01901 | -64.87764 | 37727 ft | 424 kts | 233° |
| 2026-05-05 18:10 | 46.98188 | -64.94423 | 37725 ft | 424 kts | 233° |
| 2026-05-05 18:10 | 46.94455 | -65.01102 | 37713 ft | 424 kts | 233° |
| 2026-05-05 18:11 | 46.90724 | -65.07756 | 37728 ft | 421 kts | 233° |
| 2026-05-05 18:11 | 46.87003 | -65.14385 | 37740 ft | 421 kts | 233° |
| 2026-05-05 18:12 | 46.83296 | -65.20972 | 37763 ft | 421 kts | 233° |
| 2026-05-05 18:12 | 46.79577 | -65.27563 | 37746 ft | 419 kts | 233° |
| 2026-05-05 18:13 | 46.75854 | -65.34143 | 37744 ft | 419 kts | 233° |
| 2026-05-05 18:13 | 46.72136 | -65.40700 | 37746 ft | 419 kts | 233° |
| 2026-05-05 18:14 | 46.68438 | -65.47208 | 37745 ft | 419 kts | 233° |
| 2026-05-05 18:14 | 46.64697 | -65.53774 | 37754 ft | 419 kts | 233° |
| 2026-05-05 18:15 | 46.60989 | -65.60265 | 37749 ft | 418 kts | 233° |
| 2026-05-05 18:15 | 46.57256 | -65.66787 | 37759 ft | 418 kts | 233° |
| 2026-05-05 18:16 | 46.53541 | -65.73263 | 37766 ft | 418 kts | 233° |
| 2026-05-05 18:16 | 46.49818 | -65.79734 | 37758 ft | 418 kts | 233° |
| 2026-05-05 18:17 | 46.46085 | -65.86207 | 37752 ft | 418 kts | 233° |
| 2026-05-05 18:17 | 46.42347 | -65.92675 | 37761 ft | 417 kts | 233° |
| 2026-05-05 18:18 | 46.38620 | -65.99111 | 37760 ft | 417 kts | 233° |
| 2026-05-05 18:18 | 46.34887 | -66.05541 | 37760 ft | 417 kts | 233° |
| 2026-05-05 18:19 | 46.31143 | -66.11974 | 37763 ft | 417 kts | 233° |
| 2026-05-05 18:19 | 46.27415 | -66.18370 | 37766 ft | 416 kts | 232° |
| 2026-05-05 18:20 | 46.23682 | -66.24754 | 37761 ft | 416 kts | 232° |
| 2026-05-05 18:20 | 46.19943 | -66.31133 | 37772 ft | 416 kts | 232° |
| 2026-05-05 18:21 | 46.16203 | -66.37501 | 37769 ft | 416 kts | 232° |
| 2026-05-05 18:21 | 46.12454 | -66.43867 | 37767 ft | 416 kts | 232° |
| 2026-05-05 18:22 | 46.08705 | -66.50221 | 37759 ft | 416 kts | 232° |
| 2026-05-05 18:22 | 46.04949 | -66.56573 | 37755 ft | 416 kts | 232° |
| 2026-05-05 18:23 | 46.01200 | -66.62899 | 37759 ft | 416 kts | 232° |
| 2026-05-05 18:23 | 45.97437 | -66.69235 | 37752 ft | 415 kts | 232° |
| 2026-05-05 18:24 | 45.93685 | -66.75539 | 37765 ft | 415 kts | 232° |
| 2026-05-05 18:24 | 45.89921 | -66.81848 | 37766 ft | 415 kts | 232° |
| 2026-05-05 18:25 | 45.86148 | -66.88158 | 37752 ft | 415 kts | 232° |
| 2026-05-05 18:25 | 45.82396 | -66.94415 | 37752 ft | 415 kts | 232° |
| 2026-05-05 18:26 | 45.78618 | -67.00700 | 37761 ft | 415 kts | 232° |
| 2026-05-05 18:26 | 45.74864 | -67.06934 | 37774 ft | 413 kts | 232° |
| 2026-05-05 18:27 | 45.71101 | -67.13166 | 37776 ft | 413 kts | 232° |
| 2026-05-05 18:27 | 45.67336 | -67.19391 | 37745 ft | 413 kts | 232° |
| 2026-05-05 18:28 | 45.61677 | -67.28719 | 37769 ft | 414 kts | 232° |
| 2026-05-05 18:28 | 45.57908 | -67.34912 | 37776 ft | 414 kts | 232° |
| 2026-05-05 18:29 | 45.54121 | -67.41123 | 37776 ft | 414 kts | 232° |
| 2026-05-05 18:29 | 45.50327 | -67.47334 | 37780 ft | 414 kts | 232° |
| 2026-05-05 18:30 | 45.46560 | -67.53483 | 37773 ft | 414 kts | 232° |
| 2026-05-05 18:30 | 45.42773 | -67.59653 | 37779 ft | 414 kts | 232° |
| 2026-05-05 18:31 | 45.38970 | -67.65836 | 37789 ft | 414 kts | 232° |
| 2026-05-05 18:31 | 45.35110 | -67.71948 | 37772 ft | 416 kts | 229° |
| 2026-05-05 18:32 | 45.30894 | -67.77572 | 37788 ft | 419 kts | 224° |
| 2026-05-05 18:32 | 45.26418 | -67.82929 | 37807 ft | 419 kts | 224° |
| 2026-05-05 18:33 | 45.21980 | -67.88247 | 37813 ft | 420 kts | 224° |
| 2026-05-05 18:33 | 45.17490 | -67.93608 | 37804 ft | 421 kts | 224° |
| 2026-05-05 18:34 | 45.13032 | -67.98917 | 37794 ft | 419 kts | 223° |
| 2026-05-05 18:34 | 45.09290 | -68.03358 | 37805 ft | 419 kts | 223° |
| 2026-05-05 18:35 | 45.04840 | -68.08629 | 37808 ft | 419 kts | 223° |
| 2026-05-05 18:35 | 44.99632 | -68.14786 | 37820 ft | 420 kts | 223° |
| 2026-05-05 18:36 | 44.95862 | -68.19231 | 37824 ft | 420 kts | 223° |
| 2026-05-05 18:36 | 44.91393 | -68.24493 | 37832 ft | 420 kts | 223° |
| 2026-05-05 18:37 | 44.86907 | -68.29763 | 37831 ft | 420 kts | 223° |
| 2026-05-05 18:37 | 44.82403 | -68.35043 | 37826 ft | 422 kts | 223° |
| 2026-05-05 18:38 | 44.77867 | -68.40349 | 37835 ft | 422 kts | 223° |
| 2026-05-05 18:38 | 44.73371 | -68.45597 | 37804 ft | 422 kts | 223° |
| 2026-05-05 18:39 | 44.68843 | -68.50872 | 37806 ft | 422 kts | 223° |
| 2026-05-05 18:39 | 44.64304 | -68.56148 | 37801 ft | 422 kts | 223° |
| 2026-05-05 18:40 | 44.59787 | -68.61389 | 37804 ft | 422 kts | 223° |
| 2026-05-05 18:40 | 44.55258 | -68.66632 | 37806 ft | 422 kts | 223° |
| 2026-05-05 18:41 | 44.50708 | -68.71889 | 37810 ft | 424 kts | 223° |
| 2026-05-05 18:41 | 44.46146 | -68.77148 | 37826 ft | 424 kts | 223° |
| 2026-05-05 18:42 | 44.41612 | -68.82363 | 37828 ft | 424 kts | 223° |
| 2026-05-05 18:42 | 44.37045 | -68.87604 | 37832 ft | 424 kts | 223° |
| 2026-05-05 18:43 | 44.32451 | -68.92867 | 37836 ft | 425 kts | 223° |
| 2026-05-05 18:43 | 44.27889 | -68.98080 | 37840 ft | 425 kts | 223° |
| 2026-05-05 18:44 | 44.23294 | -69.03322 | 37844 ft | 425 kts | 222° |
| 2026-05-05 18:44 | 44.18730 | -69.08519 | 37838 ft | 427 kts | 222° |
| 2026-05-05 18:45 | 44.14108 | -69.13772 | 37853 ft | 428 kts | 222° |
| 2026-05-05 18:45 | 44.09485 | -69.19015 | 37850 ft | 428 kts | 222° |
| 2026-05-05 18:46 | 44.04912 | -69.24189 | 37854 ft | 425 kts | 222° |
| 2026-05-05 18:46 | 44.00321 | -69.29374 | 37522 ft | 422 kts | 222° |
| 2026-05-05 18:47 | 43.98028 | -69.31960 | 36617 ft | 428 kts | 222° |
| 2026-05-05 18:47 | 43.95692 | -69.34595 | 35619 ft | 436 kts | 222° |
| 2026-05-05 18:47 | 43.93314 | -69.37272 | 34771 ft | 441 kts | 221° |
| 2026-05-05 18:47 | 43.90936 | -69.39944 | 33988 ft | 445 kts | 221° |
| 2026-05-05 18:48 | 43.88488 | -69.42692 | 33137 ft | 448 kts | 221° |
| 2026-05-05 18:48 | 43.86076 | -69.45399 | 32440 ft | 448 kts | 221° |
| 2026-05-05 18:48 | 43.83653 | -69.48113 | 31769 ft | 448 kts | 221° |
| 2026-05-05 18:48 | 43.81225 | -69.50828 | 31138 ft | 447 kts | 220° |
| 2026-05-05 18:49 | 43.78800 | -69.53536 | 30500 ft | 446 kts | 220° |
| 2026-05-05 18:49 | 43.76371 | -69.56216 | 29827 ft | 446 kts | 218° |
| 2026-05-05 18:49 | 43.73813 | -69.58596 | 29069 ft | 447 kts | 212° |
| 2026-05-05 18:49 | 43.71067 | -69.60624 | 28393 ft | 446 kts | 207° |
| 2026-05-05 18:50 | 43.68209 | -69.62243 | 28167 ft | 441 kts | 202° |
| 2026-05-05 18:50 | 43.65326 | -69.63599 | 27548 ft | 443 kts | 200° |
| 2026-05-05 18:50 | 43.62396 | -69.64936 | 26925 ft | 440 kts | 200° |
| 2026-05-05 18:50 | 43.59505 | -69.66240 | 26532 ft | 435 kts | 200° |
| 2026-05-05 18:51 | 43.56630 | -69.67534 | 26091 ft | 432 kts | 200° |
| 2026-05-05 18:51 | 43.53785 | -69.68815 | 25629 ft | 429 kts | 200° |
| 2026-05-05 18:51 | 43.50958 | -69.70089 | 25155 ft | 425 kts | 200° |
| 2026-05-05 18:51 | 43.48178 | -69.71338 | 24698 ft | 422 kts | 200° |
| 2026-05-05 18:52 | 43.45410 | -69.72581 | 24227 ft | 418 kts | 200° |
| 2026-05-05 18:52 | 43.42633 | -69.73827 | 23770 ft | 415 kts | 199° |
| 2026-05-05 18:52 | 43.39909 | -69.75049 | 23275 ft | 412 kts | 199° |
| 2026-05-05 18:52 | 43.37184 | -69.76267 | 22766 ft | 408 kts | 199° |
| 2026-05-05 18:53 | 43.34525 | -69.77456 | 22267 ft | 404 kts | 200° |
| 2026-05-05 18:53 | 43.31856 | -69.78648 | 21773 ft | 400 kts | 200° |
| 2026-05-05 18:53 | 43.29217 | -69.79826 | 21288 ft | 397 kts | 200° |
| 2026-05-05 18:53 | 43.26599 | -69.80995 | 20799 ft | 394 kts | 200° |
| 2026-05-05 18:54 | 43.24006 | -69.82153 | 20353 ft | 390 kts | 200° |
| 2026-05-05 18:54 | 43.21427 | -69.83300 | 19890 ft | 387 kts | 200° |
| 2026-05-05 18:54 | 43.18863 | -69.84440 | 19440 ft | 384 kts | 200° |
| 2026-05-05 18:54 | 43.16350 | -69.85558 | 18957 ft | 381 kts | 200° |
| 2026-05-05 18:55 | 43.13825 | -69.86680 | 18522 ft | 378 kts | 200° |
| 2026-05-05 18:55 | 43.11352 | -69.87777 | 18034 ft | 377 kts | 200° |
| 2026-05-05 18:55 | 43.08867 | -69.88880 | 17504 ft | 374 kts | 201° |
| 2026-05-05 18:55 | 43.06395 | -69.89975 | 17015 ft | 372 kts | 201° |
| 2026-05-05 18:56 | 43.03934 | -69.91065 | 16534 ft | 369 kts | 201° |
| 2026-05-05 18:56 | 43.01497 | -69.92144 | 16057 ft | 367 kts | 201° |
| 2026-05-05 18:56 | 42.99075 | -69.93214 | 15569 ft | 365 kts | 201° |
| 2026-05-05 18:56 | 42.96692 | -69.94268 | 15105 ft | 363 kts | 201° |
| 2026-05-05 18:57 | 42.94289 | -69.95329 | 14633 ft | 362 kts | 202° |
| 2026-05-05 18:57 | 42.91890 | -69.96389 | 14156 ft | 361 kts | 202° |
| 2026-05-05 18:57 | 42.89505 | -69.97441 | 13683 ft | 360 kts | 202° |
| 2026-05-05 18:57 | 42.87115 | -69.98496 | 13174 ft | 359 kts | 202° |
| 2026-05-05 18:58 | 42.84745 | -69.99543 | 12676 ft | 356 kts | 202° |
| 2026-05-05 18:58 | 42.82400 | -70.00575 | 12209 ft | 353 kts | 202° |
| 2026-05-05 18:58 | 42.80099 | -70.01586 | 11763 ft | 350 kts | 202° |
| 2026-05-05 18:58 | 42.77789 | -70.02603 | 11307 ft | 347 kts | 202° |
| 2026-05-05 18:59 | 42.75501 | -70.03643 | 10844 ft | 344 kts | 204° |
| 2026-05-05 18:59 | 42.73263 | -70.04750 | 10731 ft | 336 kts | 204° |
| 2026-05-05 18:59 | 42.71121 | -70.05801 | 10744 ft | 318 kts | 204° |
| 2026-05-05 18:59 | 42.69096 | -70.06795 | 10768 ft | 301 kts | 205° |
| 2026-05-05 19:00 | 42.67227 | -70.07799 | 10772 ft | 282 kts | 212° |
| 2026-05-05 19:00 | 42.65673 | -70.09250 | 10782 ft | 264 kts | 225° |
| 2026-05-05 19:00 | 42.64432 | -70.11151 | 10811 ft | 275 kts | 237° |
| 2026-05-05 19:00 | 42.63497 | -70.13453 | 10830 ft | 279 kts | 245° |
| 2026-05-05 19:01 | 42.62661 | -70.15839 | 10865 ft | 280 kts | 245° |
| 2026-05-05 19:01 | 42.61828 | -70.18250 | 10737 ft | 281 kts | 245° |
| 2026-05-05 19:01 | 42.61046 | -70.20676 | 10437 ft | 278 kts | 249° |
| 2026-05-05 19:01 | 42.60465 | -70.23192 | 10040 ft | 280 kts | 255° |
| 2026-05-05 19:02 | 42.60103 | -70.25781 | 9861 ft | 277 kts | 261° |
| 2026-05-05 19:02 | 42.59931 | -70.28377 | 9886 ft | 280 kts | 263° |
| 2026-05-05 19:02 | 42.59799 | -70.31027 | 9916 ft | 280 kts | 264° |
| 2026-05-05 19:02 | 42.59673 | -70.33673 | 9929 ft | 280 kts | 264° |
| 2026-05-05 19:03 | 42.59548 | -70.36316 | 9954 ft | 280 kts | 264° |
| 2026-05-05 19:03 | 42.59424 | -70.38961 | 9975 ft | 280 kts | 264° |
| 2026-05-05 19:03 | 42.59300 | -70.41606 | 9986 ft | 280 kts | 264° |
| 2026-05-05 19:03 | 42.59175 | -70.44266 | 9989 ft | 280 kts | 264° |
| 2026-05-05 19:04 | 42.59051 | -70.46912 | 9900 ft | 280 kts | 264° |
| 2026-05-05 19:04 | 42.58927 | -70.49527 | 9571 ft | 279 kts | 264° |
| 2026-05-05 19:04 | 42.58804 | -70.52150 | 9211 ft | 277 kts | 263° |
| 2026-05-05 19:04 | 42.58667 | -70.54750 | 8896 ft | 274 kts | 261° |
| 2026-05-05 19:05 | 42.58364 | -70.57286 | 8623 ft | 270 kts | 255° |
| 2026-05-05 19:05 | 42.57881 | -70.59742 | 8357 ft | 268 kts | 252° |
| 2026-05-05 19:05 | 42.57365 | -70.62140 | 8121 ft | 267 kts | 252° |
| 2026-05-05 19:05 | 42.56840 | -70.64555 | 7865 ft | 264 kts | 251° |
| 2026-05-05 19:06 | 42.56327 | -70.66922 | 7575 ft | 259 kts | 251° |
| 2026-05-05 19:06 | 42.56090 | -70.69332 | 7260 ft | 262 kts | 273° |
| 2026-05-05 19:06 | 42.56792 | -70.71656 | 6878 ft | 277 kts | 298° |
| 2026-05-05 19:06 | 42.57994 | -70.73676 | 6694 ft | 270 kts | 300° |
| 2026-05-05 19:07 | 42.59146 | -70.75674 | 6468 ft | 264 kts | 299° |
| 2026-05-05 19:07 | 42.60150 | -70.77672 | 6221 ft | 249 kts | 283° |
| 2026-05-05 19:07 | 42.60305 | -70.79889 | 5938 ft | 229 kts | 254° |
| 2026-05-05 19:07 | 42.59920 | -70.81961 | 5665 ft | 224 kts | 252° |
| 2026-05-05 19:08 | 42.59555 | -70.84008 | 5413 ft | 221 kts | 252° |
| 2026-05-05 19:08 | 42.59210 | -70.85993 | 5192 ft | 217 kts | 252° |
| 2026-05-05 19:08 | 42.58856 | -70.87985 | 4957 ft | 213 kts | 249° |
| 2026-05-05 19:08 | 42.58111 | -70.89649 | 4723 ft | 206 kts | 220° |
| 2026-05-05 19:09 | 42.56879 | -70.90565 | 4478 ft | 202 kts | 203° |
| 2026-05-05 19:09 | 42.55555 | -70.91221 | 3987 ft | 204 kts | 203° |
| 2026-05-05 19:09 | 42.54215 | -70.91889 | 3484 ft | 205 kts | 202° |
| 2026-05-05 19:09 | 42.52863 | -70.92555 | 2973 ft | 206 kts | 202° |
| 2026-05-05 19:10 | 42.51530 | -70.93212 | 2495 ft | 205 kts | 201° |
| 2026-05-05 19:10 | 42.50211 | -70.93854 | 2225 ft | 197 kts | 201° |
| 2026-05-05 19:10 | 42.48942 | -70.94476 | 1993 ft | 192 kts | 200° |
| 2026-05-05 19:10 | 42.47692 | -70.95079 | 1821 ft | 189 kts | 200° |
| 2026-05-05 19:11 | 42.46498 | -70.95659 | 1669 ft | 174 kts | 200° |
| 2026-05-05 19:11 | 42.45417 | -70.96187 | 1493 ft | 159 kts | 200° |
| 2026-05-05 19:11 | 42.44412 | -70.96675 | 1231 ft | 149 kts | 199° |
| 2026-05-05 19:11 | 42.43444 | -70.97147 | 1084 ft | 147 kts | 199° |
| 2026-05-05 19:12 | 42.42480 | -70.97608 | 1077 ft | 147 kts | 198° |
| 2026-05-05 19:12 | 42.41513 | -70.98063 | 914 ft | 147 kts | 198° |
| 2026-05-05 19:12 | 42.40551 | -70.98531 | 738 ft | 147 kts | 195° |
| 2026-05-05 19:12 | 42.39603 | -70.98991 | 478 ft | 145 kts | 196° |
| 2026-05-05 19:13 | 42.38652 | -70.99454 | 314 ft | 145 kts | 196° |
| 2026-05-05 19:13 | 42.37716 | -70.99898 | 93 ft | 141 kts | 199° |
| 2026-05-05 19:13 | 42.36882 | -71.00319 | 34 ft | 96 kts | 199° |
| 2026-05-05 19:13 | 42.36465 | -71.00525 | 34 ft | 43 kts | 201° |
| 2026-05-05 19:14 | 42.36249 | -71.00634 | 34 ft | 24 kts | 199° |
| 2026-05-05 19:14 | 42.36089 | -71.00712 | 35 ft | 25 kts | 202° |
| 2026-05-05 19:14 | 42.35954 | -71.00856 | 34 ft | 26 kts | 229° |
| 2026-05-05 19:14 | 42.35844 | -71.01055 | 34 ft | 27 kts | 251° |
| 2026-05-05 19:15 | 42.35846 | -71.01250 | 34 ft | 10 kts | 277° |
| 2026-05-05 19:15 | 42.35847 | -71.01263 | 33 ft | 1 kts | 277° |
| 2026-05-05 19:15 | 42.35855 | -71.01342 | 34 ft | 13 kts | 277° |
| 2026-05-05 19:15 | 42.35880 | -71.01503 | 34 ft | 18 kts | 300° |
| 2026-05-05 19:16 | 42.36009 | -71.01491 | 34 ft | 25 kts | 19° |
| 2026-05-05 19:16 | 42.36201 | -71.01401 | 34 ft | 32 kts | 19° |
| 2026-05-05 19:16 | 42.36335 | -71.01335 | 34 ft | 19 kts | 20° |
| 2026-05-05 19:16 | 42.36469 | -71.01270 | 34 ft | 22 kts | 20° |
| 2026-05-05 19:17 | 42.36618 | -71.01197 | 34 ft | 24 kts | 20° |
| 2026-05-05 19:17 | 42.36786 | -71.01161 | 34 ft | 26 kts | 336° |
| 2026-05-05 19:17 | 42.36925 | -71.01329 | 34 ft | 28 kts | 315° |
| 2026-05-05 19:17 | 42.37069 | -71.01524 | 34 ft | 31 kts | 315° |
| 2026-05-05 19:18 | 42.37181 | -71.01674 | 34 ft | 21 kts | 315° |
| 2026-05-05 19:18 | 42.37268 | -71.01791 | 34 ft | 0 kts | 315° |
| 2026-05-05 19:18 | 42.37282 | -71.01813 | 34 ft | 8 kts | 303° |
| 2026-05-05 19:18 | 42.37261 | -71.01914 | 34 ft | 15 kts | 229° |
| 2026-05-05 19:19 | 42.37238 | -71.02060 | 34 ft | 18 kts | 274° |
| 2026-05-05 19:19 | 42.37189 | -71.02194 | 34 ft | 9 kts | 216° |
| 2026-05-05 19:19 | 42.37136 | -71.02183 | 34 ft | 10 kts | 151° |
| 2026-05-05 19:19 | 42.37106 | -71.02160 | 34 ft | 1 kts | 149° |
| 2026-05-05 19:20 | 42.37094 | -71.02150 | 34 ft | 0 kts | 149° |